Aeroporto :
LOGIN :

Iscrizione | Disclaimer

   EN    FR    IT 

 










Sommario :    VFR   VFR Marginale   IFR   IFR Intensivo   IFR Molto Intensivo
Visibilità : 
Base nubi : 
>= 8 km
>= 3000ft
5 / 8 km
1000 / 3000 ft
1500m / 5 km
500 / 1000 ft
800 / 1500m
200 / 500 ft
< 800m
< 200 ft
Simboli :   Temporali  Nebbia  Neve Forte  Precipitazioni Forti  Vento > 20 kt
SIGMETs :   Varie  Temporali  Ghiacco  Turbolenza  Onda orograficha  Ceneri Vulcaniche






- Altitudine del aeroporto : 299 ft
- Codice IATA : EDM


LFRI - La Roche Sur Yon - Les Ajoncs

ULTIMO METAR :
  • 110930Z AUTO VRB04KT CAVOK 28/20 Q1014 TEMPO 4500 -SHRA BKN100TCU

METARs OBSOLETI :
  • 110900Z AUTO 21003KT 160V260 CAVOK 27/20 Q1014 TEMPO 4500 -SHRA BKN100TCU
  • 110830Z AUTO VRB01KT CAVOK 26/20 Q1013 TEMPO 4500 -SHRA BKN100TCU
  • 110800Z AUTO VRB02KT CAVOK 24/20 Q1013 TEMPO 4500 -SHRA BKN100TCU
  • 110730Z AUTO VRB01KT CAVOK 23/20 Q1013 TEMPO 4500 -SHRA BKN100TCU
  • 110700Z AUTO 00000KT CAVOK 22/21 Q1013 TEMPO 4500 -SHRA BKN100TCU

TAF AMD TAF LFRI
Valido dal 11 a 06 ore il 12 a 06 ore UTC


110537Z 1106/1206 VRB07KT CAVOK
TEMPO 1106/1107 0500 FG
PROB40
TEMPO 1106/1206 4500 -SHRA BKN100TCU
PROB30
TEMPO 1115/1122 VRB20G30KT 2500 -TSRA BKN050CB
PROB30
TEMPO 1204/1206 VRB20G30KT 2500 -TSRA BKN050CB



MetMap, La meteo Aeronautica in un colpo d'occhio ! - Copyright ORBIFLY Dicembre 2007 - Disclaimer

ORBIFLY MET'MAP TEAM :

Programmazione e sviluppo : Alexandra Zaïnal
Concezione : Baudouin d'Aumeries
Aiuto per la programmazione : Marc-Olivier Méhu
Supporto tecnico e logistico : Manuel Goepfert
Aiuto per la traduzione : Arnaldo La Scala

Contatto : metmap@orbifly.com




FONTI E CREDITI :

   NOAA